Time;durP1;ratioP1;P1;durP2;ratioP2;P2;SDS_P1;SDS_P2;PMS_P1;PMS_P2;Temp;Humidity;BMP_temperature;BMP_pressure;BME280_temperature;BME280_humidity;BME280_pressure;Samples;Min_cycle;Max_cycle;Signal;HPM_P1;HPM_P2
2020/12/13 00:01:36;;;;;;;12.43;10.57;;;8.10;99.90;;;;;;4934301;29;20221;-79
2020/12/13 00:04:02;;;;;;;12.65;11.35;;;8.10;99.90;;;;;;4930879;29;20232;-79
2020/12/13 00:06:31;;;;;;;12.52;11.23;;;8.10;99.90;;;;;;4926638;29;20245;-79
2020/12/13 00:08:59;;;;;;;12.00;10.13;;;8.20;99.90;;;;;;4924773;29;20213;-79
2020/12/13 00:11:25;;;;;;;11.98;10.13;;;8.10;99.90;;;;;;4925288;29;20214;-79
2020/12/13 00:13:52;;;;;;;10.90;9.82;;;8.10;99.90;;;;;;4930909;29;20253;-81
2020/12/13 00:16:18;;;;;;;15.90;10.85;;;8.10;99.90;;;;;;4938083;29;20242;-80
2020/12/13 00:18:45;;;;;;;14.43;10.32;;;8.10;99.90;;;;;;4937818;29;20194;-82
2020/12/13 00:21:13;;;;;;;12.60;10.73;;;8.10;99.90;;;;;;4938294;29;20208;-80
2020/12/13 00:23:39;;;;;;;14.75;11.07;;;8.10;99.90;;;;;;4934902;29;20225;-77
2020/12/13 00:26:08;;;;;;;14.55;10.73;;;8.10;99.90;;;;;;4921681;29;20237;-77
2020/12/13 00:28:35;;;;;;;12.88;10.70;;;8.20;99.90;;;;;;4923409;29;20217;-81
2020/12/13 00:31:02;;;;;;;13.20;11.10;;;8.20;99.90;;;;;;4926362;29;20209;-79
2020/12/13 00:33:29;;;;;;;14.02;11.38;;;8.20;99.90;;;;;;4926460;29;20292;-81
2020/12/13 00:35:55;;;;;;;13.88;10.95;;;8.20;99.90;;;;;;4926312;29;20205;-80
2020/12/13 00:38:22;;;;;;;13.23;10.73;;;8.10;99.90;;;;;;4927851;29;20232;-80
2020/12/13 00:40:51;;;;;;;13.23;11.10;;;8.10;99.90;;;;;;4930350;29;20272;-80
2020/12/13 00:43:18;;;;;;;12.90;10.98;;;8.10;99.90;;;;;;4927788;29;20226;-80
2020/12/13 00:45:45;;;;;;;15.88;11.05;;;8.20;99.90;;;;;;4927480;29;20210;-80
2020/12/13 00:48:11;;;;;;;13.73;11.45;;;8.20;99.90;;;;;;4926536;29;20229;-80
2020/12/13 00:50:38;;;;;;;12.85;10.90;;;8.20;99.90;;;;;;4923459;29;20723;-79
2020/12/13 00:53:05;;;;;;;11.65;10.45;;;8.10;99.90;;;;;;4923529;29;20256;-79
2020/12/13 00:55:32;;;;;;;12.48;9.95;;;8.10;99.90;;;;;;4923373;29;20269;-80
2020/12/13 00:57:58;;;;;;;15.05;9.95;;;8.10;99.90;;;;;;4921720;29;20280;-80
2020/12/13 01:00:27;;;;;;;12.52;10.07;;;8.10;99.90;;;;;;4922416;29;20221;-78
2020/12/13 01:02:57;;;;;;;11.95;10.07;;;8.10;99.90;;;;;;4925608;29;20230;-78
2020/12/13 01:05:24;;;;;;;13.43;10.70;;;8.10;99.90;;;;;;4923933;29;20230;-79
2020/12/13 01:07:51;;;;;;;12.45;10.60;;;8.10;99.90;;;;;;4922074;29;20303;-79
2020/12/13 01:10:17;;;;;;;12.57;10.70;;;8.00;99.90;;;;;;4920935;29;20564;-79
2020/12/13 01:12:44;;;;;;;12.68;11.15;;;8.10;99.90;;;;;;4921336;29;20233;-82
2020/12/13 01:15:10;;;;;;;13.30;10.75;;;8.10;99.90;;;;;;4926772;29;20217;-80
2020/12/13 01:17:38;;;;;;;14.50;9.90;;;8.10;99.90;;;;;;4925815;29;20229;-80
2020/12/13 01:20:05;;;;;;;11.73;10.40;;;8.10;99.90;;;;;;4924507;29;20213;-79
2020/12/13 01:22:36;;;;;;;14.02;10.52;;;8.10;99.90;;;;;;4925392;29;20296;-80
2020/12/13 01:25:03;;;;;;;13.25;10.80;;;8.10;99.90;;;;;;4926363;29;20654;-81
2020/12/13 01:27:29;;;;;;;13.23;10.80;;;8.10;99.90;;;;;;4924487;29;20209;-79
2020/12/13 01:29:56;;;;;;;15.40;10.45;;;8.10;99.90;;;;;;4921555;29;20664;-80
2020/12/13 01:32:22;;;;;;;11.82;10.40;;;8.10;99.90;;;;;;4929051;29;20226;-81
2020/12/13 01:34:49;;;;;;;12.32;10.13;;;8.10;99.90;;;;;;4929616;29;20230;-81
2020/12/13 01:37:16;;;;;;;13.95;10.07;;;8.10;99.90;;;;;;4931347;29;20276;-80
2020/12/13 01:39:43;;;;;;;11.52;10.05;;;8.10;99.90;;;;;;4933716;29;20536;-78
2020/12/13 01:42:09;;;;;;;13.50;11.10;;;8.10;99.90;;;;;;4934259;29;20227;-78
2020/12/13 01:44:37;;;;;;;12.35;10.75;;;8.10;99.90;;;;;;4935621;29;20236;-80
2020/12/13 01:47:05;;;;;;;12.45;10.30;;;8.10;99.90;;;;;;4928485;29;20211;-79
2020/12/13 01:49:35;;;;;;;13.70;11.20;;;8.10;99.90;;;;;;4925959;29;20230;-79
2020/12/13 01:54:51;;;;;;;14.32;11.80;;;8.20;99.90;;;;;;4922308;29;20211;-79
2020/12/13 01:57:20;;;;;;;16.05;11.43;;;8.10;99.90;;;;;;4920865;29;20250;-79
2020/12/13 01:59:50;;;;;;;13.32;10.75;;;8.10;99.90;;;;;;4923592;29;20209;-79
2020/12/13 02:02:23;;;;;;;12.50;10.65;;;8.20;99.90;;;;;;4929549;29;20226;-79
2020/12/13 02:04:54;;;;;;;14.35;11.15;;;8.20;99.90;;;;;;4933634;29;20261;-78
2020/12/13 02:07:24;;;;;;;12.52;11.20;;;8.20;99.90;;;;;;4929403;29;20285;-80
2020/12/13 02:09:50;;;;;;;14.52;11.35;;;8.10;99.90;;;;;;4936774;29;20210;-78
2020/12/13 02:12:17;;;;;;;11.80;10.35;;;8.10;99.90;;;;;;4940213;29;20292;-79
2020/12/13 02:14:43;;;;;;;14.18;11.38;;;8.10;99.90;;;;;;4938555;29;20202;-78
2020/12/13 02:17:10;;;;;;;12.43;11.13;;;8.10;99.90;;;;;;4927227;29;20243;-78
2020/12/13 02:19:36;;;;;;;13.00;11.05;;;8.10;99.90;;;;;;4938291;29;20241;-79
2020/12/13 02:22:09;;;;;;;13.30;10.68;;;8.10;99.90;;;;;;4937568;29;20202;-78
2020/12/13 02:24:36;;;;;;;18.30;11.50;;;8.10;99.90;;;;;;4929455;29;20203;-79
2020/12/13 02:27:06;;;;;;;12.98;10.85;;;8.10;99.90;;;;;;4927588;29;20278;-80
2020/12/13 02:29:33;;;;;;;14.18;10.95;;;8.20;99.90;;;;;;4924438;29;20209;-80
2020/12/13 02:31:59;;;;;;;13.75;11.50;;;8.10;99.90;;;;;;4924187;29;20209;-80
2020/12/13 02:34:26;;;;;;;14.13;10.90;;;8.20;99.90;;;;;;4921213;29;20229;-79
2020/12/13 02:36:52;;;;;;;12.70;10.70;;;8.20;99.90;;;;;;4916200;29;20203;-80
2020/12/13 02:39:20;;;;;;;12.57;10.18;;;8.20;99.90;;;;;;4924277;29;20217;-80
2020/12/13 02:41:58;;;;;;;13.55;11.10;;;8.20;99.90;;;;;;4923895;29;20205;-80
2020/12/13 02:44:25;;;;;;;13.40;10.85;;;8.20;99.90;;;;;;4923415;29;20209;-81
2020/12/13 02:46:52;;;;;;;14.23;10.90;;;8.10;99.90;;;;;;4922894;29;20221;-80
2020/12/13 02:49:18;;;;;;;12.98;11.13;;;8.10;99.90;;;;;;4922717;29;20207;-80
2020/12/13 02:51:44;;;;;;;18.02;11.75;;;8.10;99.90;;;;;;4922806;29;20228;-80
2020/12/13 02:54:11;;;;;;;15.07;11.95;;;8.00;99.90;;;;;;4919761;29;20205;-80
2020/12/13 02:56:41;;;;;;;13.90;11.10;;;8.00;99.90;;;;;;4933906;29;20193;-80
2020/12/13 02:59:08;;;;;;;13.85;11.77;;;8.10;99.90;;;;;;4941249;29;20204;-79
2020/12/13 03:01:34;;;;;;;13.65;10.88;;;8.10;99.90;;;;;;4939803;29;20705;-80
2020/12/13 03:04:01;;;;;;;13.20;10.75;;;8.10;99.90;;;;;;4928795;29;20229;-81
2020/12/13 03:06:27;;;;;;;12.45;10.10;;;8.10;99.90;;;;;;4909808;29;20239;-79
2020/12/13 03:08:55;;;;;;;14.35;10.48;;;8.10;99.90;;;;;;4927504;29;20201;-80
2020/12/13 03:11:22;;;;;;;12.07;10.65;;;8.10;99.90;;;;;;4925060;29;20299;-80
2020/12/13 03:13:50;;;;;;;13.57;9.70;;;8.10;99.90;;;;;;4929012;29;20237;-80
2020/12/13 03:16:16;;;;;;;15.60;11.75;;;8.10;99.90;;;;;;4941383;29;20281;-79
2020/12/13 03:18:43;;;;;;;12.75;10.55;;;8.10;99.90;;;;;;4942605;29;20209;-81
2020/12/13 03:21:09;;;;;;;16.02;10.40;;;8.10;99.90;;;;;;4941916;29;20245;-81
2020/12/13 03:23:36;;;;;;;13.00;10.95;;;8.10;99.90;;;;;;4941362;29;20254;-80
2020/12/13 03:26:02;;;;;;;13.18;10.52;;;8.20;99.90;;;;;;4939545;29;20249;-79
2020/12/13 03:28:28;;;;;;;12.25;10.20;;;8.10;99.90;;;;;;4935080;29;20233;-79
2020/12/13 03:30:56;;;;;;;13.43;10.82;;;8.20;99.90;;;;;;4938644;29;20218;-82
2020/12/13 03:33:22;;;;;;;14.02;10.82;;;8.10;99.90;;;;;;4929830;29;20229;-79
2020/12/13 03:35:49;;;;;;;13.07;9.60;;;8.10;99.90;;;;;;4929804;29;20276;-80
2020/12/13 03:38:16;;;;;;;13.75;9.90;;;8.10;99.90;;;;;;4929146;29;20224;-79
2020/12/13 03:40:42;;;;;;;14.68;11.73;;;8.00;99.90;;;;;;4923435;29;20204;-79
2020/12/13 03:43:09;;;;;;;13.60;10.55;;;8.10;99.90;;;;;;4928046;29;20239;-79
2020/12/13 03:45:35;;;;;;;16.80;11.73;;;8.10;99.90;;;;;;4934907;29;20376;-80
2020/12/13 03:48:03;;;;;;;12.93;11.10;;;8.10;99.90;;;;;;4937138;29;20192;-80
2020/12/13 03:50:38;;;;;;;14.85;10.75;;;8.10;99.90;;;;;;4937444;29;20209;-81
2020/12/13 03:53:08;;;;;;;12.32;10.18;;;8.00;99.90;;;;;;4936949;29;20243;-81
2020/12/13 03:55:35;;;;;;;14.07;11.30;;;8.00;99.90;;;;;;4926862;29;20214;-80
2020/12/13 03:58:02;;;;;;;13.02;10.27;;;8.10;99.90;;;;;;4925619;29;20225;-80
2020/12/13 04:00:29;;;;;;;15.80;11.30;;;8.10;99.90;;;;;;4927636;29;20806;-80
2020/12/13 04:02:56;;;;;;;12.88;11.00;;;8.00;99.90;;;;;;4932367;29;20277;-77
2020/12/13 04:05:24;;;;;;;13.80;10.75;;;8.00;99.90;;;;;;4940863;29;20213;-76
2020/12/13 04:07:51;;;;;;;13.23;10.57;;;8.00;99.90;;;;;;4940706;29;20216;-77
2020/12/13 04:10:17;;;;;;;13.57;10.40;;;8.00;99.90;;;;;;4938783;29;20233;-78
2020/12/13 04:12:44;;;;;;;14.73;12.30;;;8.00;99.90;;;;;;4938065;29;20290;-80
2020/12/13 04:15:11;;;;;;;11.27;9.60;;;8.10;99.90;;;;;;4941555;29;20221;-80
2020/12/13 04:17:37;;;;;;;12.90;11.50;;;8.10;99.90;;;;;;4942026;29;20223;-80
2020/12/13 04:20:05;;;;;;;14.80;11.02;;;8.10;99.90;;;;;;4942238;29;20202;-80
2020/12/13 04:22:33;;;;;;;12.73;10.52;;;8.10;99.90;;;;;;4940393;29;20249;-81
2020/12/13 04:24:59;;;;;;;13.02;9.73;;;8.00;99.90;;;;;;4940482;29;20222;-79
2020/12/13 04:27:26;;;;;;;11.38;9.90;;;8.10;99.90;;;;;;4940871;29;20185;-79
2020/12/13 04:29:53;;;;;;;14.30;9.70;;;8.10;99.90;;;;;;4941211;29;20193;-79
2020/12/13 04:32:19;;;;;;;13.65;10.02;;;8.10;99.90;;;;;;4939423;29;20230;-81
2020/12/13 04:34:46;;;;;;;13.55;10.13;;;8.10;99.90;;;;;;4937171;29;20214;-79
2020/12/13 04:37:12;;;;;;;14.13;10.52;;;8.10;99.90;;;;;;4935225;29;20258;-79
2020/12/13 04:39:39;;;;;;;11.07;9.40;;;8.10;99.90;;;;;;4933870;29;20215;-78
2020/12/13 04:42:06;;;;;;;12.63;10.10;;;8.10;99.90;;;;;;4936594;29;20229;-79
2020/12/13 04:44:34;;;;;;;15.05;10.35;;;8.10;99.90;;;;;;4940341;29;20204;-79
2020/12/13 04:47:04;;;;;;;13.55;9.90;;;8.10;99.90;;;;;;4940837;29;20264;-80
2020/12/13 04:49:31;;;;;;;13.20;10.20;;;8.10;99.90;;;;;;4940578;29;20221;-80
2020/12/13 04:51:59;;;;;;;12.38;10.32;;;8.10;99.90;;;;;;4934117;29;20214;-80
2020/12/13 04:54:26;;;;;;;15.25;9.70;;;8.10;99.90;;;;;;4935875;29;20215;-80
2020/12/13 04:56:56;;;;;;;14.68;9.80;;;8.10;99.90;;;;;;4932839;29;20256;-81
2020/12/13 04:59:24;;;;;;;13.98;10.45;;;8.10;99.90;;;;;;4928148;29;20205;-80
2020/12/13 05:01:50;;;;;;;14.10;10.10;;;8.10;99.90;;;;;;4926891;29;20208;-79
2020/12/13 05:04:17;;;;;;;11.48;10.23;;;8.00;99.90;;;;;;4924508;29;20292;-79
2020/12/13 05:06:45;;;;;;;13.70;10.48;;;8.10;99.90;;;;;;4923462;29;20263;-80
2020/12/13 05:09:13;;;;;;;11.93;9.32;;;8.10;99.90;;;;;;4923703;29;20295;-79
2020/12/13 05:11:40;;;;;;;10.05;8.90;;;8.10;99.90;;;;;;4919034;29;20237;-79
2020/12/13 05:14:07;;;;;;;14.45;10.80;;;8.00;99.90;;;;;;4923182;29;20237;-80
2020/12/13 05:16:34;;;;;;;12.90;9.90;;;8.00;99.90;;;;;;4922787;29;20212;-81
2020/12/13 05:19:01;;;;;;;11.77;9.65;;;8.00;99.90;;;;;;4921573;29;20229;-79
2020/12/13 05:21:27;;;;;;;13.82;9.35;;;8.00;99.90;;;;;;4918918;29;20205;-79
2020/12/13 05:23:54;;;;;;;14.00;9.07;;;8.10;99.90;;;;;;4919929;29;20232;-79
2020/12/13 05:26:22;;;;;;;11.23;9.63;;;8.10;99.90;;;;;;4918598;29;20224;-81
2020/12/13 05:28:51;;;;;;;12.25;9.70;;;8.10;99.90;;;;;;4917890;29;20216;-79
2020/12/13 05:31:21;;;;;;;13.20;9.43;;;8.10;99.90;;;;;;4918764;29;20212;-78
2020/12/13 05:33:50;;;;;;;9.95;8.48;;;8.10;99.90;;;;;;4917569;29;20270;-79
2020/12/13 05:36:18;;;;;;;14.25;9.38;;;8.10;99.90;;;;;;4918218;29;20213;-78
2020/12/13 05:38:45;;;;;;;10.27;8.48;;;8.10;99.90;;;;;;4925418;29;20218;-79
2020/12/13 05:41:16;;;;;;;10.95;8.40;;;8.10;99.90;;;;;;4934804;29;20298;-80
2020/12/13 05:43:47;;;;;;;10.70;8.38;;;8.00;99.90;;;;;;4934093;29;20235;-80
2020/12/13 05:49:11;;;;;;;10.30;8.20;;;8.00;99.90;;;;;;4933918;29;20237;-80
2020/12/13 05:51:38;;;;;;;10.82;8.52;;;8.10;99.90;;;;;;4934084;29;20218;-80
2020/12/13 05:54:08;;;;;;;11.95;8.35;;;8.10;99.90;;;;;;4920814;29;20249;-79
2020/12/13 05:56:35;;;;;;;11.35;8.77;;;8.10;99.90;;;;;;4920411;29;20196;-78
2020/12/13 05:59:01;;;;;;;12.60;8.38;;;8.00;99.90;;;;;;4917654;29;20417;-77
2020/12/13 06:01:30;;;;;;;12.68;8.05;;;8.00;99.90;;;;;;4931243;29;20212;-80
2020/12/13 06:04:02;;;;;;;10.98;8.52;;;8.00;99.90;;;;;;4939064;29;20322;-80
2020/12/13 06:06:28;;;;;;;12.52;8.25;;;8.10;99.90;;;;;;4937916;29;20216;-79
2020/12/13 06:09:11;;;;;;;10.77;8.25;;;8.00;99.90;;;;;;4938265;29;20208;-79
2020/12/13 06:11:43;;;;;;;13.63;7.88;;;8.00;99.90;;;;;;4937038;29;20189;-80
2020/12/13 06:14:17;;;;;;;13.95;9.38;;;8.00;99.90;;;;;;4937864;29;20620;-78
2020/12/13 06:16:45;;;;;;;12.40;8.48;;;8.00;99.90;;;;;;4932619;29;20201;-80
2020/12/13 06:19:14;;;;;;;11.40;9.02;;;8.00;99.90;;;;;;4921357;29;20692;-80
2020/12/13 06:21:42;;;;;;;11.73;8.40;;;8.00;99.90;;;;;;4922252;29;20230;-79
2020/12/13 06:24:09;;;;;;;10.90;7.72;;;7.90;99.90;;;;;;4920643;29;20296;-81
2020/12/13 06:26:36;;;;;;;11.30;8.48;;;8.00;99.90;;;;;;4918709;29;20205;-81
2020/12/13 06:29:04;;;;;;;13.65;8.20;;;8.00;99.90;;;;;;4921715;29;20209;-79
2020/12/13 06:31:32;;;;;;;13.68;9.15;;;8.00;99.90;;;;;;4922956;29;20213;-78
2020/12/13 06:33:59;;;;;;;11.95;9.20;;;8.00;99.90;;;;;;4918962;29;20254;-78
2020/12/13 06:36:27;;;;;;;10.45;8.43;;;7.90;99.90;;;;;;4921273;29;20799;-79
2020/12/13 06:38:56;;;;;;;13.00;8.25;;;8.00;99.90;;;;;;4921288;29;20233;-79
2020/12/13 06:41:24;;;;;;;10.43;8.68;;;8.00;99.90;;;;;;4921736;29;20658;-79
2020/12/13 06:43:57;;;;;;;14.20;10.10;;;7.90;99.90;;;;;;4925310;29;20247;-78
2020/12/13 06:46:25;;;;;;;12.75;8.20;;;7.90;99.90;;;;;;4940198;29;20252;-80
2020/12/13 06:48:52;;;;;;;20.70;9.48;;;8.00;99.90;;;;;;4931424;29;20214;-80
2020/12/13 06:51:25;;;;;;;17.13;9.13;;;8.00;99.90;;;;;;4940747;29;20213;-79
2020/12/13 06:53:53;;;;;;;13.45;9.07;;;8.00;99.90;;;;;;4926225;29;20228;-79
2020/12/13 06:56:21;;;;;;;15.32;9.30;;;7.90;99.90;;;;;;4924212;29;20221;-79
2020/12/13 06:58:55;;;;;;;11.68;8.77;;;7.90;99.90;;;;;;4924629;29;20328;-79
2020/12/13 07:01:22;;;;;;;15.50;9.32;;;8.00;99.90;;;;;;4924810;29;20211;-79
2020/12/13 07:03:50;;;;;;;11.52;8.65;;;7.90;99.90;;;;;;4924176;29;20229;-80
2020/12/13 07:06:22;;;;;;;21.30;10.30;;;7.90;99.90;;;;;;4932368;29;20207;-79
2020/12/13 07:08:58;;;;;;;12.45;9.40;;;8.00;99.90;;;;;;4942867;29;20181;-79
2020/12/13 07:11:28;;;;;;;13.38;9.25;;;7.90;99.90;;;;;;4943084;29;20687;-77
2020/12/13 07:14:05;;;;;;;11.20;8.80;;;8.00;99.90;;;;;;4942292;29;20247;-80
2020/12/13 07:16:35;;;;;;;12.38;9.45;;;8.00;99.90;;;;;;4943500;29;20211;-79
2020/12/13 07:19:08;;;;;;;11.45;8.38;;;8.00;99.90;;;;;;4943243;28;20221;-80
2020/12/13 07:21:37;;;;;;;12.82;8.52;;;7.90;99.90;;;;;;4943374;29;20236;-80
2020/12/13 07:24:06;;;;;;;12.90;9.07;;;7.90;99.90;;;;;;4943691;29;20228;-82
2020/12/13 07:26:36;;;;;;;15.43;9.23;;;7.90;99.90;;;;;;4943434;29;20253;-79
2020/12/13 07:29:06;;;;;;;11.55;7.97;;;7.90;99.90;;;;;;4943021;29;20186;-81
2020/12/13 07:31:36;;;;;;;9.10;7.47;;;7.90;99.90;;;;;;4942689;29;20218;-78
2020/12/13 07:34:04;;;;;;;10.75;8.20;;;7.90;99.90;;;;;;4943251;29;20240;-79
2020/12/13 07:36:32;;;;;;;9.95;7.40;;;8.00;99.90;;;;;;4943164;29;20207;-81
2020/12/13 07:39:01;;;;;;;11.80;8.05;;;8.00;99.90;;;;;;4942893;29;20217;-81
2020/12/13 07:41:27;;;;;;;11.55;8.30;;;7.90;99.90;;;;;;4942249;29;20208;-77
2020/12/13 07:43:59;;;;;;;10.95;6.85;;;7.90;99.90;;;;;;4942020;29;20288;-83
2020/12/13 07:46:27;;;;;;;10.15;7.22;;;7.90;99.90;;;;;;4942477;29;20204;-79
2020/12/13 07:49:19;;;;;;;10.80;6.95;;;7.90;99.90;;;;;;4942038;29;20253;-78
2020/12/13 07:51:47;;;;;;;10.15;7.60;;;7.90;99.50;;;;;;4928149;29;20265;-79
2020/12/13 07:54:19;;;;;;;9.13;6.22;;;7.90;99.40;;;;;;4942048;29;20189;-77
2020/12/13 07:56:47;;;;;;;10.63;6.63;;;7.90;99.00;;;;;;4936958;29;20215;-77
2020/12/13 07:59:16;;;;;;;9.63;6.75;;;7.90;98.90;;;;;;4924396;29;20265;-79
2020/12/13 08:01:44;;;;;;;9.05;6.55;;;8.00;98.70;;;;;;4924565;29;20216;-79
2020/12/13 08:04:11;;;;;;;8.90;6.47;;;8.00;98.10;;;;;;4940062;29;20196;-77
2020/12/13 08:06:38;;;;;;;9.50;6.75;;;8.00;98.10;;;;;;4941210;29;20427;-79
2020/12/13 08:09:09;;;;;;;12.73;6.90;;;8.00;98.00;;;;;;4939327;29;20193;-80
2020/12/13 08:11:36;;;;;;;7.53;6.60;;;8.00;97.50;;;;;;4941338;29;20253;-79
2020/12/13 08:14:05;;;;;;;7.40;5.97;;;8.10;97.20;;;;;;4925935;29;20245;-78
2020/12/13 08:16:33;;;;;;;11.60;6.13;;;8.00;96.20;;;;;;4919018;29;20220;-77
2020/12/13 08:19:09;;;;;;;10.85;6.07;;;8.10;96.10;;;;;;4920536;29;20229;-79
2020/12/13 08:21:46;;;;;;;8.95;6.03;;;8.10;95.70;;;;;;4936180;29;20197;-80
2020/12/13 08:24:15;;;;;;;7.22;5.68;;;8.10;95.60;;;;;;4925488;29;20216;-79
2020/12/13 08:26:43;;;;;;;5.90;5.28;;;8.20;95.60;;;;;;4939738;29;20189;-81
2020/12/13 08:29:11;;;;;;;7.68;5.93;;;8.20;95.40;;;;;;4941110;29;20213;-79
2020/12/13 08:31:40;;;;;;;8.18;5.32;;;8.20;94.60;;;;;;4935840;29;20190;-80
2020/12/13 08:34:08;;;;;;;5.90;5.22;;;8.30;94.70;;;;;;4922827;29;20258;-81
2020/12/13 08:36:36;;;;;;;7.70;6.10;;;8.20;94.10;;;;;;4922968;29;20225;-78
2020/12/13 08:39:06;;;;;;;7.72;6.07;;;8.20;94.20;;;;;;4923654;29;20277;-80
2020/12/13 08:41:34;;;;;;;8.23;5.35;;;8.20;94.10;;;;;;4922732;29;20189;-80
2020/12/13 08:44:01;;;;;;;6.88;5.20;;;8.30;93.70;;;;;;4935593;29;20257;-80
2020/12/13 08:46:36;;;;;;;7.07;5.40;;;8.30;93.40;;;;;;4930953;29;20214;-77
2020/12/13 08:49:04;;;;;;;6.63;5.00;;;8.30;92.90;;;;;;4938569;29;20209;-78
2020/12/13 08:51:31;;;;;;;10.95;5.43;;;8.30;92.60;;;;;;4926096;29;20214;-77
2020/12/13 08:54:02;;;;;;;7.03;5.35;;;8.30;92.70;;;;;;4928179;29;20237;-79
2020/12/13 08:56:37;;;;;;;7.30;5.68;;;8.40;92.80;;;;;;4930029;29;20201;-77
2020/12/13 08:59:05;;;;;;;8.32;5.82;;;8.50;92.30;;;;;;4924718;29;20308;-80
2020/12/13 09:01:35;;;;;;;7.75;5.55;;;8.40;92.00;;;;;;4925556;29;20666;-78
2020/12/13 09:04:17;;;;;;;6.18;5.25;;;8.50;91.80;;;;;;4925031;29;20234;-79
2020/12/13 09:06:52;;;;;;;6.88;5.18;;;8.50;91.20;;;;;;4927473;29;20209;-78
2020/12/13 09:09:19;;;;;;;7.78;5.40;;;8.50;91.10;;;;;;4928140;29;20213;-78
2020/12/13 09:11:45;;;;;;;7.45;5.43;;;8.50;91.10;;;;;;4930482;29;20219;-75
2020/12/13 09:14:11;;;;;;;6.28;5.28;;;8.60;91.20;;;;;;4929749;29;20291;-80
2020/12/13 09:16:38;;;;;;;11.18;6.07;;;8.60;91.20;;;;;;4929881;29;20219;-77
2020/12/13 09:19:09;;;;;;;6.22;5.35;;;8.70;90.50;;;;;;4928224;29;20245;-76
2020/12/13 09:21:50;;;;;;;7.82;5.07;;;8.70;90.30;;;;;;4939699;28;20182;-75
2020/12/13 09:24:18;;;;;;;7.80;5.20;;;8.60;89.90;;;;;;4920649;29;20177;-76
2020/12/13 09:27:04;;;;;;;8.88;5.40;;;8.70;90.20;;;;;;4920582;29;20222;-75
2020/12/13 09:29:32;;;;;;;6.30;4.85;;;8.70;90.20;;;;;;4959848;23;20240;-80
2020/12/13 09:31:59;;;;;;;11.55;7.00;;;8.60;89.40;;;;;;4939254;28;20210;-79
2020/12/13 09:34:25;;;;;;;5.55;4.85;;;8.70;89.20;;;;;;4936206;29;20191;-82
2020/12/13 09:36:53;;;;;;;8.70;5.10;;;8.70;88.60;;;;;;4946981;28;20191;-82
2020/12/13 09:39:19;;;;;;;7.60;5.50;;;8.70;88.20;;;;;;4938442;29;20280;-80
2020/12/13 09:41:46;;;;;;;14.32;6.55;;;8.70;88.00;;;;;;4941226;29;20260;-80
2020/12/13 09:44:12;;;;;;;7.88;5.78;;;8.70;88.50;;;;;;4924794;29;20270;-80
2020/12/13 09:46:39;;;;;;;6.30;5.03;;;8.70;88.00;;;;;;4934033;29;20210;-80
2020/12/13 09:49:05;;;;;;;9.43;5.45;;;8.80;87.60;;;;;;4946214;28;20236;-80
2020/12/13 09:51:32;;;;;;;8.02;5.53;;;8.80;86.30;;;;;;4958907;28;20222;-82
2020/12/13 09:54:01;;;;;;;9.45;5.70;;;9.00;86.30;;;;;;4956848;28;20201;-82
2020/12/13 09:56:28;;;;;;;5.95;5.30;;;9.10;84.90;;;;;;4939374;29;20233;-82
2020/12/13 09:58:57;;;;;;;8.13;5.40;;;9.20;83.70;;;;;;4944565;28;20221;-81
2020/12/13 10:01:24;;;;;;;10.40;5.68;;;9.30;81.20;;;;;;4939678;29;20206;-81
2020/12/13 10:03:52;;;;;;;8.20;5.95;;;9.30;81.70;;;;;;4939804;29;20257;-83
2020/12/13 10:09:19;;;;;;;5.97;4.88;;;9.60;78.30;;;;;;4935119;29;20271;-81
2020/12/13 10:11:46;;;;;;;7.47;4.90;;;9.70;77.00;;;;;;4933790;29;20259;-81
2020/12/13 10:14:14;;;;;;;6.28;4.50;;;9.60;76.10;;;;;;4936882;29;20239;-80
2020/12/13 10:16:42;;;;;;;6.80;5.10;;;9.60;76.90;;;;;;4930966;29;20218;-81
2020/12/13 10:19:09;;;;;;;9.00;4.68;;;9.40;76.70;;;;;;4934340;29;20237;-79
2020/12/13 10:21:38;;;;;;;7.05;4.93;;;9.30;77.90;;;;;;4941240;29;20191;-81
2020/12/13 10:24:06;;;;;;;9.88;5.15;;;9.30;78.60;;;;;;4940933;29;20246;-80
2020/12/13 10:26:36;;;;;;;6.72;3.65;;;9.30;78.30;;;;;;4953756;29;20233;-79
2020/12/13 10:29:04;;;;;;;4.65;3.85;;;9.30;76.60;;;;;;4954534;28;20247;-78
2020/12/13 10:31:32;;;;;;;4.50;3.83;;;9.40;76.70;;;;;;4952892;28;20214;-80
2020/12/13 10:33:59;;;;;;;6.30;4.20;;;9.50;76.00;;;;;;4943424;29;20200;-78
2020/12/13 10:36:26;;;;;;;7.40;4.32;;;9.50;74.50;;;;;;4944607;28;20218;-79
2020/12/13 10:39:06;;;;;;;7.97;4.95;;;9.40;73.90;;;;;;4961920;29;20227;-81
2020/12/13 10:41:35;;;;;;;5.50;4.82;;;9.30;74.30;;;;;;4958623;28;20292;-80
2020/12/13 10:44:03;;;;;;;9.20;5.15;;;9.30;75.00;;;;;;4946678;29;20209;-81
2020/12/13 10:46:30;;;;;;;10.15;5.63;;;9.20;76.60;;;;;;4952819;28;20205;-81
2020/12/13 10:48:56;;;;;;;6.80;4.25;;;9.20;76.60;;;;;;4962404;28;20226;-81
2020/12/13 10:51:24;;;;;;;10.40;5.28;;;9.30;76.60;;;;;;4964140;28;20256;-80
2020/12/13 10:53:50;;;;;;;6.75;5.32;;;9.30;76.60;;;;;;4963641;28;20213;-82
2020/12/13 10:56:17;;;;;;;7.00;5.32;;;9.40;76.70;;;;;;4947056;29;20235;-84
2020/12/13 10:58:45;;;;;;;8.95;5.35;;;9.40;76.70;;;;;;4950833;28;20219;-83
2020/12/13 11:01:13;;;;;;;9.07;5.00;;;9.40;76.40;;;;;;4943370;29;20198;-82
2020/12/13 11:03:42;;;;;;;10.25;5.28;;;9.50;75.50;;;;;;4952642;28;20249;-81
2020/12/13 11:06:10;;;;;;;7.90;4.60;;;9.60;74.00;;;;;;4961467;28;20266;-84
2020/12/13 11:08:37;;;;;;;4.40;3.83;;;9.70;72.70;;;;;;4953654;28;20281;-84
2020/12/13 11:11:04;;;;;;;6.82;4.90;;;9.80;71.40;;;;;;4948358;28;20201;-83
2020/12/13 11:13:30;;;;;;;5.93;3.75;;;9.80;70.70;;;;;;4954704;28;20185;-80
2020/12/13 11:15:57;;;;;;;5.53;4.07;;;10.00;67.60;;;;;;4945117;29;20193;-83
2020/12/13 11:18:24;;;;;;;6.28;4.82;;;10.00;67.60;;;;;;4947820;28;20209;-83
2020/12/13 11:20:56;;;;;;;8.95;4.75;;;10.00;67.60;;;;;;4947277;29;20191;-81
2020/12/13 11:23:23;;;;;;;8.75;4.28;;;10.10;67.70;;;;;;4947317;28;20218;-83
2020/12/13 11:25:49;;;;;;;4.32;3.42;;;9.90;66.80;;;;;;4951363;28;20190;-83
2020/12/13 11:28:18;;;;;;;7.22;3.85;;;9.70;66.80;;;;;;4958957;28;20228;-83
2020/12/13 11:30:48;;;;;;;6.47;4.47;;;9.50;67.60;;;;;;4944015;28;20257;-83
2020/12/13 11:33:15;;;;;;;5.93;3.90;;;9.40;68.00;;;;;;4956713;28;20194;-83
2020/12/13 11:35:42;;;;;;;7.93;4.68;;;9.40;68.00;;;;;;4952780;28;20198;-81
2020/12/13 11:38:10;;;;;;;8.20;4.53;;;9.40;68.00;;;;;;4958619;28;20288;-82
2020/12/13 11:40:36;;;;;;;7.72;4.07;;;9.30;67.90;;;;;;4953239;28;20205;-82
2020/12/13 11:43:03;;;;;;;6.53;4.68;;;9.30;68.00;;;;;;4956808;28;20283;-83
2020/12/13 11:45:29;;;;;;;5.78;3.88;;;9.30;67.90;;;;;;4952138;28;20227;-80
2020/12/13 11:47:56;;;;;;;6.30;4.68;;;9.40;68.00;;;;;;4950084;28;20306;-80
2020/12/13 11:50:23;;;;;;;8.45;4.80;;;9.60;67.10;;;;;;4952346;28;20209;-79
2020/12/13 11:52:49;;;;;;;6.28;4.90;;;9.60;65.90;;;;;;4952483;28;20257;-78
2020/12/13 11:55:16;;;;;;;9.90;3.97;;;9.50;66.20;;;;;;4941726;29;20208;-83
2020/12/13 11:57:42;;;;;;;6.68;3.97;;;9.50;66.70;;;;;;4955065;28;20237;-83
2020/12/13 12:00:09;;;;;;;6.43;4.60;;;9.60;64.90;;;;;;4979911;28;20702;-80
2020/12/13 12:02:35;;;;;;;7.72;4.50;;;9.60;63.80;;;;;;4972045;28;20187;-82
2020/12/13 12:05:02;;;;;;;5.65;3.80;;;9.50;63.60;;;;;;4967442;28;20208;-81
2020/12/13 12:07:29;;;;;;;5.95;4.07;;;9.50;63.70;;;;;;4959982;28;20213;-82
2020/12/13 12:09:55;;;;;;;8.07;4.18;;;9.60;63.00;;;;;;4967980;28;20235;-81
2020/12/13 12:12:22;;;;;;;7.15;4.15;;;9.60;62.20;;;;;;4956445;29;20196;-82
2020/12/13 12:14:48;;;;;;;5.63;4.32;;;9.50;61.60;;;;;;4958757;28;20678;-82
2020/12/13 12:17:15;;;;;;;7.15;5.35;;;9.60;61.00;;;;;;4955078;29;20208;-80
2020/12/13 12:19:42;;;;;;;6.85;4.32;;;9.40;61.60;;;;;;4953513;29;20708;-80
2020/12/13 12:22:09;;;;;;;5.05;4.15;;;9.30;62.60;;;;;;4956823;28;20240;-82
2020/12/13 12:24:37;;;;;;;9.75;5.00;;;9.30;62.90;;;;;;4958427;28;20205;-83
2020/12/13 12:27:08;;;;;;;5.22;4.22;;;9.30;62.40;;;;;;4952335;29;20239;-82
2020/12/13 12:29:34;;;;;;;5.75;3.65;;;9.30;61.70;;;;;;4949409;28;20229;-81
2020/12/13 12:32:01;;;;;;;5.07;4.18;;;9.20;60.90;;;;;;4962900;28;20209;-81
2020/12/13 12:34:27;;;;;;;9.43;5.18;;;9.20;61.60;;;;;;4955355;28;20249;-82
2020/12/13 12:36:54;;;;;;;6.65;4.18;;;9.30;61.90;;;;;;4945843;28;20730;-78
2020/12/13 12:39:21;;;;;;;5.93;4.30;;;9.40;61.70;;;;;;4964761;29;20266;-80
2020/12/13 12:41:48;;;;;;;4.30;3.35;;;9.60;59.30;;;;;;4963892;29;20210;-80
2020/12/13 12:44:14;;;;;;;5.75;4.68;;;9.80;59.50;;;;;;4958517;29;20195;-81
2020/12/13 12:46:41;;;;;;;5.65;3.65;;;10.00;58.60;;;;;;4963650;28;20268;-79
2020/12/13 12:49:07;;;;;;;6.78;3.80;;;10.00;58.70;;;;;;4966048;28;20245;-81
2020/12/13 12:51:34;;;;;;;4.05;3.20;;;10.00;55.90;;;;;;4950796;28;20504;-81
2020/12/13 12:54:00;;;;;;;4.75;3.45;;;9.90;57.20;;;;;;4961411;28;20243;-80
2020/12/13 12:56:28;;;;;;;5.80;3.20;;;9.80;56.60;;;;;;4969580;28;20220;-81
2020/12/13 12:59:00;;;;;;;5.40;2.95;;;9.70;56.90;;;;;;4962609;28;20258;-82